sensor_id;sensor_type;location;lat;lon;timestamp;pressure;altitude;pressure_sealevel;temperature;humidity
33280;BME280;20403;43.114;12.434;2022-10-17T00:00:31;100207.31;;;13.25;100.00
33280;BME280;20403;43.114;12.434;2022-10-17T00:02:56;100209.94;;;13.25;100.00
33280;BME280;20403;43.114;12.434;2022-10-17T00:05:22;100207.50;;;13.30;100.00
33280;BME280;20403;43.114;12.434;2022-10-17T00:07:47;100209.75;;;13.27;100.00
33280;BME280;20403;43.114;12.434;2022-10-17T00:10:13;100217.00;;;13.31;100.00
33280;BME280;20403;43.114;12.434;2022-10-17T00:12:38;100212.56;;;13.25;100.00
33280;BME280;20403;43.114;12.434;2022-10-17T00:15:04;100209.72;;;13.33;100.00
33280;BME280;20403;43.114;12.434;2022-10-17T00:17:30;100211.16;;;13.29;100.00
33280;BME280;20403;43.114;12.434;2022-10-17T00:19:57;100213.19;;;13.20;100.00
33280;BME280;20403;43.114;12.434;2022-10-17T00:22:22;100221.63;;;13.22;100.00
33280;BME280;20403;43.114;12.434;2022-10-17T00:24:47;100223.69;;;13.14;100.00
33280;BME280;20403;43.114;12.434;2022-10-17T00:27:12;100221.50;;;13.11;100.00
33280;BME280;20403;43.114;12.434;2022-10-17T00:29:38;100218.28;;;13.09;100.00
33280;BME280;20403;43.114;12.434;2022-10-17T00:32:03;100213.44;;;13.12;100.00
33280;BME280;20403;43.114;12.434;2022-10-17T00:34:28;100215.28;;;13.05;100.00
33280;BME280;20403;43.114;12.434;2022-10-17T00:36:54;100219.72;;;13.04;100.00
33280;BME280;20403;43.114;12.434;2022-10-17T00:39:20;100216.28;;;13.11;100.00
33280;BME280;20403;43.114;12.434;2022-10-17T00:41:45;100212.91;;;13.03;100.00
33280;BME280;20403;43.114;12.434;2022-10-17T00:46:54;100218.97;;;12.97;100.00
33280;BME280;20403;43.114;12.434;2022-10-17T00:49:20;100211.69;;;12.99;100.00
33280;BME280;20403;43.114;12.434;2022-10-17T00:51:54;100215.31;;;12.98;100.00
33280;BME280;20403;43.114;12.434;2022-10-17T00:54:23;100219.69;;;13.11;100.00
33280;BME280;20403;43.114;12.434;2022-10-17T00:56:49;100221.97;;;13.01;100.00
33280;BME280;20403;43.114;12.434;2022-10-17T00:59:15;100225.84;;;12.92;100.00
33280;BME280;20403;43.114;12.434;2022-10-17T01:01:42;100225.88;;;12.85;100.00
33280;BME280;20403;43.114;12.434;2022-10-17T01:04:10;100235.75;;;12.83;100.00
33280;BME280;20403;43.114;12.434;2022-10-17T01:06:36;100229.13;;;12.80;100.00
33280;BME280;20403;43.114;12.434;2022-10-17T01:09:01;100226.88;;;12.84;100.00
33280;BME280;20403;43.114;12.434;2022-10-17T01:11:30;100233.09;;;12.90;100.00
33280;BME280;20403;43.114;12.434;2022-10-17T01:14:08;100225.47;;;12.81;100.00
33280;BME280;20403;43.114;12.434;2022-10-17T01:27:40;100210.66;;;12.62;100.00
33280;BME280;20403;43.114;12.434;2022-10-17T01:29:55;100214.06;;;12.69;100.00
33280;BME280;20403;43.114;12.434;2022-10-17T01:32:29;100211.78;;;12.79;100.00
33280;BME280;20403;43.114;12.434;2022-10-17T01:35:18;100212.25;;;12.63;100.00
33280;BME280;20403;43.114;12.434;2022-10-17T01:37:49;100210.50;;;12.57;100.00
33280;BME280;20403;43.114;12.434;2022-10-17T01:40:32;100206.72;;;12.39;100.00
33280;BME280;20403;43.114;12.434;2022-10-17T01:45:58;100202.44;;;12.52;100.00
33280;BME280;20403;43.114;12.434;2022-10-17T01:48:31;100201.47;;;12.39;100.00
33280;BME280;20403;43.114;12.434;2022-10-17T01:51:00;100205.28;;;12.50;100.00
33280;BME280;20403;43.114;12.434;2022-10-17T01:53:29;100209.50;;;12.51;100.00
33280;BME280;20403;43.114;12.434;2022-10-17T01:55:56;100206.88;;;12.45;100.00
33280;BME280;20403;43.114;12.434;2022-10-17T01:58:26;100207.91;;;12.44;100.00
33280;BME280;20403;43.114;12.434;2022-10-17T02:00:52;100210.34;;;12.38;100.00
33280;BME280;20403;43.114;12.434;2022-10-17T02:03:18;100211.94;;;12.46;100.00
33280;BME280;20403;43.114;12.434;2022-10-17T02:05:45;100211.53;;;12.36;100.00
33280;BME280;20403;43.114;12.434;2022-10-17T02:08:10;100201.47;;;12.39;100.00
33280;BME280;20403;43.114;12.434;2022-10-17T06:00:49;100323.56;;;12.72;100.00
33280;BME280;20403;43.114;12.434;2022-10-17T06:03:14;100324.56;;;12.78;100.00
33280;BME280;20403;43.114;12.434;2022-10-17T06:05:39;100329.34;;;12.88;100.00
33280;BME280;20403;43.114;12.434;2022-10-17T06:08:04;100327.34;;;12.83;100.00
33280;BME280;20403;43.114;12.434;2022-10-17T06:10:30;100328.16;;;12.90;100.00
33280;BME280;20403;43.114;12.434;2022-10-17T06:12:55;100334.97;;;12.98;100.00
33280;BME280;20403;43.114;12.434;2022-10-17T06:15:21;100330.13;;;13.01;100.00
33280;BME280;20403;43.114;12.434;2022-10-17T06:17:46;100334.72;;;13.13;100.00
33280;BME280;20403;43.114;12.434;2022-10-17T06:20:12;100333.88;;;13.12;100.00
33280;BME280;20403;43.114;12.434;2022-10-17T06:22:37;100337.50;;;13.24;100.00
33280;BME280;20403;43.114;12.434;2022-10-17T06:25:02;100342.13;;;13.29;100.00
33280;BME280;20403;43.114;12.434;2022-10-17T06:27:28;100344.63;;;13.49;100.00
33280;BME280;20403;43.114;12.434;2022-10-17T06:29:53;100347.25;;;13.49;100.00
33280;BME280;20403;43.114;12.434;2022-10-17T06:32:18;100352.69;;;13.54;100.00
33280;BME280;20403;43.114;12.434;2022-10-17T06:34:43;100360.88;;;13.64;100.00
33280;BME280;20403;43.114;12.434;2022-10-17T06:37:09;100362.06;;;13.75;100.00
33280;BME280;20403;43.114;12.434;2022-10-17T06:39:34;100364.44;;;13.77;100.00
33280;BME280;20403;43.114;12.434;2022-10-17T06:42:00;100366.09;;;13.71;100.00
33280;BME280;20403;43.114;12.434;2022-10-17T06:44:25;100372.41;;;13.63;100.00
33280;BME280;20403;43.114;12.434;2022-10-17T06:46:54;100385.25;;;13.72;100.00
33280;BME280;20403;43.114;12.434;2022-10-17T06:49:20;100395.66;;;13.85;100.00
33280;BME280;20403;43.114;12.434;2022-10-17T06:51:45;100390.63;;;13.83;100.00
33280;BME280;20403;43.114;12.434;2022-10-17T06:54:10;100395.88;;;13.83;100.00
33280;BME280;20403;43.114;12.434;2022-10-17T06:56:35;100399.59;;;14.01;100.00
33280;BME280;20403;43.114;12.434;2022-10-17T06:59:01;100388.03;;;14.08;100.00
33280;BME280;20403;43.114;12.434;2022-10-17T07:01:26;100393.34;;;14.02;100.00
33280;BME280;20403;43.114;12.434;2022-10-17T07:03:52;100399.28;;;14.16;100.00
33280;BME280;20403;43.114;12.434;2022-10-17T07:06:17;100393.25;;;14.15;100.00
33280;BME280;20403;43.114;12.434;2022-10-17T07:08:43;100388.72;;;14.29;100.00
33280;BME280;20403;43.114;12.434;2022-10-17T07:11:13;100397.97;;;14.32;100.00
33280;BME280;20403;43.114;12.434;2022-10-17T07:13:38;100396.13;;;14.32;100.00
33280;BME280;20403;43.114;12.434;2022-10-17T07:16:04;100396.38;;;14.31;100.00
33280;BME280;20403;43.114;12.434;2022-10-17T07:18:29;100402.66;;;14.23;100.00
33280;BME280;20403;43.114;12.434;2022-10-17T07:20:54;100406.47;;;14.27;100.00
33280;BME280;20403;43.114;12.434;2022-10-17T07:23:20;100406.44;;;14.34;100.00
33280;BME280;20403;43.114;12.434;2022-10-17T07:25:46;100403.22;;;14.32;100.00
33280;BME280;20403;43.114;12.434;2022-10-17T07:28:11;100408.16;;;14.21;100.00
33280;BME280;20403;43.114;12.434;2022-10-17T07:30:37;100408.94;;;14.22;100.00
33280;BME280;20403;43.114;12.434;2022-10-17T07:33:03;100416.03;;;14.21;100.00
33280;BME280;20403;43.114;12.434;2022-10-17T07:35:28;100413.31;;;14.03;100.00
33280;BME280;20403;43.114;12.434;2022-10-17T07:37:53;100419.56;;;14.02;100.00
33280;BME280;20403;43.114;12.434;2022-10-17T07:40:18;100416.53;;;14.05;100.00
33280;BME280;20403;43.114;12.434;2022-10-17T07:42:44;100421.34;;;14.08;100.00
33280;BME280;20403;43.114;12.434;2022-10-17T07:45:09;100423.06;;;14.21;100.00
33280;BME280;20403;43.114;12.434;2022-10-17T07:47:35;100416.34;;;14.32;100.00
33280;BME280;20403;43.114;12.434;2022-10-17T07:50:04;100418.06;;;14.44;100.00
33280;BME280;20403;43.114;12.434;2022-10-17T07:52:29;100418.81;;;14.52;100.00
33280;BME280;20403;43.114;12.434;2022-10-17T07:54:55;100420.53;;;14.64;100.00
33280;BME280;20403;43.114;12.434;2022-10-17T07:57:20;100425.47;;;14.79;100.00
33280;BME280;20403;43.114;12.434;2022-10-17T07:59:45;100425.16;;;14.87;100.00
33280;BME280;20403;43.114;12.434;2022-10-17T08:02:24;100426.09;;;15.00;100.00
33280;BME280;20403;43.114;12.434;2022-10-17T08:04:50;100430.44;;;15.06;100.00
33280;BME280;20403;43.114;12.434;2022-10-17T08:07:16;100431.91;;;15.20;100.00
33280;BME280;20403;43.114;12.434;2022-10-17T08:09:41;100427.63;;;15.26;100.00
33280;BME280;20403;43.114;12.434;2022-10-17T08:12:07;100436.00;;;15.16;100.00
33280;BME280;20403;43.114;12.434;2022-10-17T08:14:32;100438.84;;;15.15;100.00
33280;BME280;20403;43.114;12.434;2022-10-17T08:16:57;100445.63;;;15.22;100.00
33280;BME280;20403;43.114;12.434;2022-10-17T08:19:23;100436.00;;;15.34;100.00
33280;BME280;20403;43.114;12.434;2022-10-17T08:21:48;100434.50;;;15.57;100.00
33280;BME280;20403;43.114;12.434;2022-10-17T08:24:14;100433.38;;;15.71;100.00
33280;BME280;20403;43.114;12.434;2022-10-17T08:26:39;100432.63;;;15.64;100.00
33280;BME280;20403;43.114;12.434;2022-10-17T08:29:04;100424.50;;;15.84;100.00
33280;BME280;20403;43.114;12.434;2022-10-17T08:31:31;100425.66;;;15.88;100.00
33280;BME280;20403;43.114;12.434;2022-10-17T08:33:56;100420.88;;;15.97;100.00
33280;BME280;20403;43.114;12.434;2022-10-17T08:36:21;100424.94;;;16.23;100.00
33280;BME280;20403;43.114;12.434;2022-10-17T08:38:47;100423.72;;;16.49;100.00
33280;BME280;20403;43.114;12.434;2022-10-17T08:41:13;100419.16;;;16.68;100.00
33280;BME280;20403;43.114;12.434;2022-10-17T08:46:13;100410.34;;;16.98;100.00
33280;BME280;20403;43.114;12.434;2022-10-17T08:48:40;100409.75;;;17.19;100.00
33280;BME280;20403;43.114;12.434;2022-10-17T08:53:40;100406.34;;;17.48;100.00
33280;BME280;20403;43.114;12.434;2022-10-17T08:58:39;100408.09;;;17.71;100.00
33280;BME280;20403;43.114;12.434;2022-10-17T09:03:50;100410.03;;;18.21;100.00
33280;BME280;20403;43.114;12.434;2022-10-17T09:06:21;100408.72;;;18.57;100.00
33280;BME280;20403;43.114;12.434;2022-10-17T09:14:31;100413.16;;;19.29;100.00
33280;BME280;20403;43.114;12.434;2022-10-17T09:19:36;100413.94;;;20.06;100.00
33280;BME280;20403;43.114;12.434;2022-10-17T09:22:14;100409.19;;;20.41;100.00
33280;BME280;20403;43.114;12.434;2022-10-17T09:24:42;100405.78;;;20.50;100.00
33280;BME280;20403;43.114;12.434;2022-10-17T09:27:14;100407.91;;;20.53;100.00
33280;BME280;20403;43.114;12.434;2022-10-17T09:29:42;100411.31;;;20.81;100.00
33280;BME280;20403;43.114;12.434;2022-10-17T09:32:11;100401.09;;;21.05;100.00
33280;BME280;20403;43.114;12.434;2022-10-17T09:34:38;100406.75;;;21.29;100.00
33280;BME280;20403;43.114;12.434;2022-10-17T09:37:04;100415.16;;;21.16;100.00
33280;BME280;20403;43.114;12.434;2022-10-17T09:39:33;100408.94;;;21.43;100.00
33280;BME280;20403;43.114;12.434;2022-10-17T09:41:59;100409.53;;;21.75;100.00
33280;BME280;20403;43.114;12.434;2022-10-17T09:44:35;100407.19;;;22.05;100.00
33280;BME280;20403;43.114;12.434;2022-10-17T09:49:38;100407.47;;;22.23;100.00
33280;BME280;20403;43.114;12.434;2022-10-17T09:52:05;100405.56;;;22.19;100.00
33280;BME280;20403;43.114;12.434;2022-10-17T09:54:43;100410.09;;;22.39;100.00
33280;BME280;20403;43.114;12.434;2022-10-17T09:57:10;100409.28;;;22.13;100.00
33280;BME280;20403;43.114;12.434;2022-10-17T10:02:06;100410.88;;;22.50;100.00
33280;BME280;20403;43.114;12.434;2022-10-17T10:04:31;100411.94;;;22.69;100.00
33280;BME280;20403;43.114;12.434;2022-10-17T10:07:01;100404.94;;;22.89;100.00
33280;BME280;20403;43.114;12.434;2022-10-17T10:09:28;100402.06;;;22.70;100.00
33280;BME280;20403;43.114;12.434;2022-10-17T10:11:55;100404.91;;;22.99;100.00
33280;BME280;20403;43.114;12.434;2022-10-17T10:14:28;100404.00;;;23.29;100.00
33280;BME280;20403;43.114;12.434;2022-10-17T10:16:53;100404.56;;;23.21;100.00
33280;BME280;20403;43.114;12.434;2022-10-17T10:21:54;100404.09;;;23.58;100.00
33280;BME280;20403;43.114;12.434;2022-10-17T10:24:20;100403.44;;;23.82;100.00
33280;BME280;20403;43.114;12.434;2022-10-17T10:26:46;100406.78;;;23.98;100.00
33280;BME280;20403;43.114;12.434;2022-10-17T10:29:22;100403.69;;;24.15;100.00
33280;BME280;20403;43.114;12.434;2022-10-17T10:31:50;100399.72;;;23.83;100.00
33280;BME280;20403;43.114;12.434;2022-10-17T10:34:26;100398.72;;;23.68;100.00
33280;BME280;20403;43.114;12.434;2022-10-17T10:39:32;100403.06;;;23.54;100.00
33280;BME280;20403;43.114;12.434;2022-10-17T10:41:58;100388.94;;;23.54;100.00
33280;BME280;20403;43.114;12.434;2022-10-17T10:44:25;100399.84;;;23.57;100.00
33280;BME280;20403;43.114;12.434;2022-10-17T10:49:51;100391.25;;;23.76;100.00
33280;BME280;20403;43.114;12.434;2022-10-17T10:52:23;100389.16;;;23.62;100.00
33280;BME280;20403;43.114;12.434;2022-10-17T10:55:14;100388.97;;;23.93;100.00
33280;BME280;20403;43.114;12.434;2022-10-17T10:57:39;100381.13;;;24.07;100.00
33280;BME280;20403;43.114;12.434;2022-10-17T11:00:16;100386.59;;;24.21;100.00
33280;BME280;20403;43.114;12.434;2022-10-17T11:07:45;100370.28;;;25.00;100.00
33280;BME280;20403;43.114;12.434;2022-10-17T11:10:36;100371.28;;;24.85;100.00
33280;BME280;20403;43.114;12.434;2022-10-17T11:13:04;100365.06;;;24.70;100.00
33280;BME280;20403;43.114;12.434;2022-10-17T11:15:39;100364.59;;;24.87;100.00
33280;BME280;20403;43.114;12.434;2022-10-17T11:20:52;100369.31;;;25.14;100.00
33280;BME280;20403;43.114;12.434;2022-10-17T11:23:29;100365.38;;;25.31;100.00
33280;BME280;20403;43.114;12.434;2022-10-17T11:25:58;100366.06;;;25.17;100.00
33280;BME280;20403;43.114;12.434;2022-10-17T11:28:27;100363.50;;;25.31;100.00
33280;BME280;20403;43.114;12.434;2022-10-17T11:30:55;100356.50;;;25.35;100.00
33280;BME280;20403;43.114;12.434;2022-10-17T11:33:28;100350.91;;;25.51;100.00
33280;BME280;20403;43.114;12.434;2022-10-17T11:35:57;100348.50;;;25.35;100.00
33280;BME280;20403;43.114;12.434;2022-10-17T11:38:26;100344.19;;;25.72;100.00
33280;BME280;20403;43.114;12.434;2022-10-17T11:40:55;100350.78;;;25.61;100.00
33280;BME280;20403;43.114;12.434;2022-10-17T11:46:25;100347.31;;;25.61;100.00
33280;BME280;20403;43.114;12.434;2022-10-17T11:48:56;100343.28;;;25.63;100.00
33280;BME280;20403;43.114;12.434;2022-10-17T11:51:22;100341.75;;;25.57;100.00
33280;BME280;20403;43.114;12.434;2022-10-17T11:54:01;100338.53;;;25.93;100.00
33280;BME280;20403;43.114;12.434;2022-10-17T11:56:35;100344.28;;;26.00;100.00
33280;BME280;20403;43.114;12.434;2022-10-17T12:01:34;100342.69;;;25.99;100.00
33280;BME280;20403;43.114;12.434;2022-10-17T12:04:11;100336.78;;;25.83;100.00
33280;BME280;20403;43.114;12.434;2022-10-17T12:09:23;100327.28;;;25.77;100.00
33280;BME280;20403;43.114;12.434;2022-10-17T12:11:55;100327.97;;;25.83;99.74
33280;BME280;20403;43.114;12.434;2022-10-17T12:17:05;100318.66;;;25.80;97.21
33280;BME280;20403;43.114;12.434;2022-10-17T12:19:44;100317.75;;;26.04;100.00
33280;BME280;20403;43.114;12.434;2022-10-17T12:24:43;100309.19;;;26.62;91.26
33280;BME280;20403;43.114;12.434;2022-10-17T12:29:46;100311.75;;;26.81;80.22
33280;BME280;20403;43.114;12.434;2022-10-17T12:32:12;100313.84;;;26.70;78.34
33280;BME280;20403;43.114;12.434;2022-10-17T12:34:38;100314.41;;;26.81;78.88
33280;BME280;20403;43.114;12.434;2022-10-17T12:37:03;100311.84;;;26.76;80.15
33280;BME280;20403;43.114;12.434;2022-10-17T12:41:54;100314.03;;;26.46;88.09
33280;BME280;20403;43.114;12.434;2022-10-17T12:54:29;100312.69;;;26.99;94.48
33280;BME280;20403;43.114;12.434;2022-10-17T12:56:55;100306.84;;;26.97;94.33
33280;BME280;20403;43.114;12.434;2022-10-17T12:59:25;100311.41;;;26.96;89.62
33280;BME280;20403;43.114;12.434;2022-10-17T13:01:52;100301.38;;;27.02;81.54
33280;BME280;20403;43.114;12.434;2022-10-17T13:04:19;100307.59;;;26.75;91.98
33280;BME280;20403;43.114;12.434;2022-10-17T13:06:46;100298.94;;;26.36;90.53
33280;BME280;20403;43.114;12.434;2022-10-17T13:11:43;100291.38;;;26.57;89.71
33280;BME280;20403;43.114;12.434;2022-10-17T13:14:12;100299.28;;;26.63;100.00
33280;BME280;20403;43.114;12.434;2022-10-17T13:16:42;100291.53;;;26.75;91.51
33280;BME280;20403;43.114;12.434;2022-10-17T13:19:16;100288.25;;;26.78;100.00
33280;BME280;20403;43.114;12.434;2022-10-17T13:24:49;100287.06;;;26.70;100.00
33280;BME280;20403;43.114;12.434;2022-10-17T13:29:51;100287.06;;;26.70;100.00
33280;BME280;20403;43.114;12.434;2022-10-17T13:32:17;100288.06;;;26.74;100.00
33280;BME280;20403;43.114;12.434;2022-10-17T13:34:42;100288.25;;;26.64;100.00
33280;BME280;20403;43.114;12.434;2022-10-17T13:37:10;100291.84;;;26.59;100.00
33280;BME280;20403;43.114;12.434;2022-10-17T13:39:37;100291.41;;;26.52;100.00
33280;BME280;20403;43.114;12.434;2022-10-17T13:42:04;100290.34;;;26.39;100.00
33280;BME280;20403;43.114;12.434;2022-10-17T13:44:33;100292.25;;;26.25;100.00
33280;BME280;20403;43.114;12.434;2022-10-17T13:46:59;100291.94;;;26.13;100.00
33280;BME280;20403;43.114;12.434;2022-10-17T13:49:32;100292.03;;;26.08;100.00
33280;BME280;20403;43.114;12.434;2022-10-17T13:51:58;100291.00;;;25.90;100.00
33280;BME280;20403;43.114;12.434;2022-10-17T13:54:29;100291.34;;;25.83;100.00
33280;BME280;20403;43.114;12.434;2022-10-17T13:56:56;100289.25;;;25.66;100.00
33280;BME280;20403;43.114;12.434;2022-10-17T13:59:23;100294.34;;;25.49;100.00
33280;BME280;20403;43.114;12.434;2022-10-17T14:01:49;100299.41;;;25.31;100.00
33280;BME280;20403;43.114;12.434;2022-10-17T14:04:16;100299.06;;;25.19;100.00
33280;BME280;20403;43.114;12.434;2022-10-17T14:06:41;100293.13;;;25.03;100.00
33280;BME280;20403;43.114;12.434;2022-10-17T14:09:15;100294.00;;;24.80;100.00
33280;BME280;20403;43.114;12.434;2022-10-17T14:11:42;100291.44;;;24.69;100.00
33280;BME280;20403;43.114;12.434;2022-10-17T14:14:17;100297.19;;;24.58;100.00
33280;BME280;20403;43.114;12.434;2022-10-17T14:16:43;100302.72;;;24.37;100.00
33280;BME280;20403;43.114;12.434;2022-10-17T14:21:53;100304.16;;;24.00;100.00
33280;BME280;20403;43.114;12.434;2022-10-17T14:26:57;100290.59;;;23.67;100.00
33280;BME280;20403;43.114;12.434;2022-10-17T14:29:27;100296.53;;;23.59;100.00
33280;BME280;20403;43.114;12.434;2022-10-17T14:32:00;100300.44;;;23.33;100.00
33280;BME280;20403;43.114;12.434;2022-10-17T14:34:28;100305.94;;;23.07;100.00
33280;BME280;20403;43.114;12.434;2022-10-17T14:36:54;100298.50;;;22.99;100.00
33280;BME280;20403;43.114;12.434;2022-10-17T14:39:21;100301.75;;;22.80;100.00
33280;BME280;20403;43.114;12.434;2022-10-17T14:41:47;100301.06;;;22.64;100.00
33280;BME280;20403;43.114;12.434;2022-10-17T14:44:34;100303.47;;;22.56;100.00
33280;BME280;20403;43.114;12.434;2022-10-17T14:46:59;100298.25;;;22.30;100.00
33280;BME280;20403;43.114;12.434;2022-10-17T14:49:36;100295.84;;;22.18;100.00
33280;BME280;20403;43.114;12.434;2022-10-17T14:52:08;100294.00;;;22.14;100.00
33280;BME280;20403;43.114;12.434;2022-10-17T14:54:33;100295.09;;;21.97;100.00
33280;BME280;20403;43.114;12.434;2022-10-17T14:56:59;100299.06;;;21.85;100.00
33280;BME280;20403;43.114;12.434;2022-10-17T14:59:32;100295.88;;;21.82;100.00
33280;BME280;20403;43.114;12.434;2022-10-17T15:01:57;100291.09;;;21.69;100.00
33280;BME280;20403;43.114;12.434;2022-10-17T15:04:23;100295.34;;;21.55;100.00
33280;BME280;20403;43.114;12.434;2022-10-17T15:06:52;100290.06;;;21.45;100.00
33280;BME280;20403;43.114;12.434;2022-10-17T15:09:18;100295.00;;;21.15;100.00
33280;BME280;20403;43.114;12.434;2022-10-17T15:11:43;100290.72;;;20.99;100.00
33280;BME280;20403;43.114;12.434;2022-10-17T15:14:09;100294.66;;;20.86;100.00
33280;BME280;20403;43.114;12.434;2022-10-17T15:16:34;100292.50;;;20.73;100.00
33280;BME280;20403;43.114;12.434;2022-10-17T15:18:59;100295.03;;;20.47;100.00
33280;BME280;20403;43.114;12.434;2022-10-17T15:21:25;100297.06;;;20.35;100.00
33280;BME280;20403;43.114;12.434;2022-10-17T15:23:51;100294.63;;;20.23;100.00
33280;BME280;20403;43.114;12.434;2022-10-17T15:26:18;100298.78;;;20.14;100.00
33280;BME280;20403;43.114;12.434;2022-10-17T15:28:43;100296.53;;;19.90;100.00
33280;BME280;20403;43.114;12.434;2022-10-17T15:31:10;100301.19;;;19.78;100.00
33280;BME280;20403;43.114;12.434;2022-10-17T15:33:35;100301.34;;;19.66;100.00
33280;BME280;20403;43.114;12.434;2022-10-17T15:36:01;100302.22;;;19.50;100.00
33280;BME280;20403;43.114;12.434;2022-10-17T15:38:26;100301.63;;;19.43;100.00
33280;BME280;20403;43.114;12.434;2022-10-17T15:40:51;100298.13;;;19.32;100.00
33280;BME280;20403;43.114;12.434;2022-10-17T15:43:17;100307.22;;;19.19;100.00
33280;BME280;20403;43.114;12.434;2022-10-17T15:45:42;100309.03;;;19.14;100.00
33280;BME280;20403;43.114;12.434;2022-10-17T15:48:09;100305.28;;;19.09;100.00
33280;BME280;20403;43.114;12.434;2022-10-17T15:50:40;100312.66;;;19.07;100.00
33280;BME280;20403;43.114;12.434;2022-10-17T15:53:09;100310.16;;;18.96;100.00
33280;BME280;20403;43.114;12.434;2022-10-17T15:55:35;100316.69;;;18.88;100.00
33280;BME280;20403;43.114;12.434;2022-10-17T15:58:00;100311.81;;;18.80;100.00
33280;BME280;20403;43.114;12.434;2022-10-17T16:00:26;100313.03;;;18.72;100.00
33280;BME280;20403;43.114;12.434;2022-10-17T16:02:51;100314.22;;;18.64;100.00
33280;BME280;20403;43.114;12.434;2022-10-17T16:05:17;100310.97;;;18.57;100.00
33280;BME280;20403;43.114;12.434;2022-10-17T16:07:43;100316.13;;;18.47;100.00
33280;BME280;20403;43.114;12.434;2022-10-17T16:10:11;100316.22;;;18.35;100.00
33280;BME280;20403;43.114;12.434;2022-10-17T16:12:36;100318.88;;;18.18;100.00
33280;BME280;20403;43.114;12.434;2022-10-17T16:15:05;100319.78;;;18.07;100.00
33280;BME280;20403;43.114;12.434;2022-10-17T16:17:31;100322.81;;;17.99;100.00
33280;BME280;20403;43.114;12.434;2022-10-17T16:19:56;100321.31;;;18.03;100.00
33280;BME280;20403;43.114;12.434;2022-10-17T16:22:26;100327.94;;;17.89;100.00
33280;BME280;20403;43.114;12.434;2022-10-17T16:24:55;100328.66;;;17.84;100.00
33280;BME280;20403;43.114;12.434;2022-10-17T16:27:23;100337.72;;;17.76;100.00
33280;BME280;20403;43.114;12.434;2022-10-17T16:29:48;100329.41;;;17.68;100.00
33280;BME280;20403;43.114;12.434;2022-10-17T16:32:13;100334.84;;;17.61;100.00
33280;BME280;20403;43.114;12.434;2022-10-17T16:34:39;100325.38;;;17.48;100.00
33280;BME280;20403;43.114;12.434;2022-10-17T16:37:04;100329.06;;;17.47;100.00
33280;BME280;20403;43.114;12.434;2022-10-17T16:39:29;100327.03;;;17.37;100.00
33280;BME280;20403;43.114;12.434;2022-10-17T16:41:54;100332.78;;;17.34;100.00
33280;BME280;20403;43.114;12.434;2022-10-17T16:44:20;100332.91;;;17.28;100.00
33280;BME280;20403;43.114;12.434;2022-10-17T16:46:45;100340.94;;;17.21;100.00
33280;BME280;20403;43.114;12.434;2022-10-17T16:49:11;100336.06;;;17.13;100.00
33280;BME280;20403;43.114;12.434;2022-10-17T16:51:36;100340.91;;;17.04;100.00
33280;BME280;20403;43.114;12.434;2022-10-17T16:54:02;100349.28;;;17.01;100.00
33280;BME280;20403;43.114;12.434;2022-10-17T16:56:28;100344.94;;;16.95;100.00
33280;BME280;20403;43.114;12.434;2022-10-17T16:58:55;100351.47;;;16.92;100.00
33280;BME280;20403;43.114;12.434;2022-10-17T17:01:22;100352.16;;;16.88;100.00
33280;BME280;20403;43.114;12.434;2022-10-17T17:03:47;100346.44;;;16.79;100.00
33280;BME280;20403;43.114;12.434;2022-10-17T17:06:14;100354.22;;;16.86;100.00
33280;BME280;20403;43.114;12.434;2022-10-17T17:08:40;100353.44;;;16.85;100.00
33280;BME280;20403;43.114;12.434;2022-10-17T17:11:06;100357.22;;;16.89;100.00
33280;BME280;20403;43.114;12.434;2022-10-17T17:13:31;100363.97;;;16.85;100.00
33280;BME280;20403;43.114;12.434;2022-10-17T17:18:31;100361.31;;;16.73;100.00
33280;BME280;20403;43.114;12.434;2022-10-17T17:20:57;100352.84;;;16.71;100.00
33280;BME280;20403;43.114;12.434;2022-10-17T17:23:23;100362.13;;;16.74;100.00
33280;BME280;20403;43.114;12.434;2022-10-17T17:25:48;100358.91;;;16.72;100.00
33280;BME280;20403;43.114;12.434;2022-10-17T17:28:20;100371.06;;;16.73;100.00
33280;BME280;20403;43.114;12.434;2022-10-17T17:30:45;100365.91;;;16.66;100.00
33280;BME280;20403;43.114;12.434;2022-10-17T17:33:10;100373.25;;;16.52;100.00
33280;BME280;20403;43.114;12.434;2022-10-17T17:35:37;100370.94;;;16.44;100.00
33280;BME280;20403;43.114;12.434;2022-10-17T17:38:02;100373.81;;;16.66;100.00
33280;BME280;20403;43.114;12.434;2022-10-17T17:40:28;100372.50;;;17.16;100.00
33280;BME280;20403;43.114;12.434;2022-10-17T17:42:53;100367.03;;;17.34;100.00
33280;BME280;20403;43.114;12.434;2022-10-17T17:45:19;100367.81;;;17.06;100.00
33280;BME280;20403;43.114;12.434;2022-10-17T17:47:44;100372.56;;;16.80;100.00
33280;BME280;20403;43.114;12.434;2022-10-17T17:50:09;100365.91;;;16.66;100.00
33280;BME280;20403;43.114;12.434;2022-10-17T17:52:34;100371.19;;;16.54;100.00
33280;BME280;20403;43.114;12.434;2022-10-17T17:55:00;100366.16;;;16.41;100.00
33280;BME280;20403;43.114;12.434;2022-10-17T17:57:27;100373.78;;;16.31;100.00
33280;BME280;20403;43.114;12.434;2022-10-17T17:59:52;100368.09;;;16.22;100.00
33280;BME280;20403;43.114;12.434;2022-10-17T18:02:18;100373.56;;;16.09;100.00